Aérodrome :
LOGIN :

S'inscrire | Disclaimer

   EN    FR    IT 

 










Légende :    VFR   VFR Marginal   IFR   IFR Intensif   IFR Très Intensif
Visi : 
Plafond : 
>= 8 km
>= 3000ft
5 à 8 km
1000 à 3000 ft
1500m à 5 km
500 à 1000 ft
800 à 1500m
200 à 500 ft
< 800m
< 200 ft
Symboles :   Orages  Brouillard  Fortes neiges  Fortes précipitations  Vent > 20 kt
SIGMETs :   Divers  Orages  Givrage  Turbulence  Onde Orograph.  Cendres Volcan.






- Altitude de l'aérodrome : 586 ft
- Code IATA : IEV


UKKK - Zhuliany

DERNIER METAR :
  • 140600Z 13005MPS 090V160 6000 OVC007 07/06 Q1021 R08/70D NOSIG

METARs EXPIRÉS :
  • 140552Z 13004MPS 090V170 5000 BR OVC007 07/06 Q1021 R08/70D NOSIG
  • 140530Z 13005MPS 100V170 4800 BR OVC007 07/06 Q1020 R08/CLRD70 NOSIG
  • 140500Z 13005MPS 100V180 4100 BR BKN007 06/05 Q1020 R08/70D NOSIG
  • 140452Z 13005MPS 100V180 4600 BR BKN007 06/05 Q1020 R08/70D NOSIG
  • 140430Z 13004MPS 090V180 5000 BR BKN007 06/05 Q1020 R08/70D NOSIG
  • 140400Z 13004MPS 100V180 4700 BR BKN007 06/05 Q1020 R08/CLRD70 NOSIG
  • 140330Z 13004G09MPS 100V170 4900 BR BKN007 06/05 Q1020 R08/CLRD70 NOSIG
  • 140318Z 13004MPS 090V170 4900 BR BKN007 06/05 Q1020 R08/70D NOSIG

TAF TAF UKKK
Valide du 14 à 06h jusqu'au 15 à 06h UTC


140503Z 1406/1506 13005G10MPS 6000 BKN008
TEMPO 1406/1414 14007G13MPS 2000 BR BKN006
PROB40
TEMPO 1406/1409 0400 FG VV002
TEMPO 1414/1506 2000 BR OVC007



MET'MAP, la Météo Aéronautique d'un coup d'oeil ! - Copyright ORBIFLY Décembre 2007 - Disclaimer

ORBIFLY MET'MAP TEAM :

Programmation & Développement : Alexandra Zaïnal
Conception & Développement : Baudouin d'Aumeries
Co-Programmation & Développement : Marc-Olivier Méhu
Soutien technique & logistique : Manuel Goepfert

Contact : metmap@orbifly.com




SOURCES & CREDITS :

   NOAA